Time;durP1;ratioP1;P1;durP2;ratioP2;P2;SDS_P1;SDS_P2;PMS_P1;PMS_P2;Temp;Humidity;BMP_temperature;BMP_pressure;BME280_temperature;BME280_humidity;BME280_pressure;Samples;Min_cycle;Max_cycle;Signal;HPM_P1;HPM_P2
2023/12/14 00:01:45;;;;;;;12.50;7.53;;;5.20;99.90;;;;;;5016369;28;20201;-85
2023/12/14 00:04:11;;;;;;;13.80;8.60;;;5.20;99.90;;;;;;5016606;28;20717;-84
2023/12/14 00:06:37;;;;;;;13.57;8.80;;;5.20;99.90;;;;;;5034199;28;20257;-86
2023/12/14 00:09:02;;;;;;;14.13;8.47;;;5.20;99.90;;;;;;5016144;28;20204;-85
2023/12/14 00:11:28;;;;;;;13.23;8.77;;;5.20;99.90;;;;;;5033908;28;20205;-85
2023/12/14 00:13:54;;;;;;;16.33;8.50;;;5.20;99.90;;;;;;5034341;28;20301;-85
2023/12/14 00:16:19;;;;;;;11.60;8.13;;;5.10;99.90;;;;;;5016458;28;20209;-85
2023/12/14 00:18:45;;;;;;;12.67;8.30;;;5.10;99.90;;;;;;5016484;28;20166;-85
2023/12/14 00:21:10;;;;;;;12.83;8.77;;;5.10;99.90;;;;;;5016067;28;20263;-85
2023/12/14 00:23:36;;;;;;;12.63;8.43;;;5.10;99.90;;;;;;5034190;28;20167;-85
2023/12/14 00:26:02;;;;;;;14.40;8.37;;;5.10;99.90;;;;;;5016246;28;20258;-85
2023/12/14 00:28:27;;;;;;;13.10;8.13;;;5.10;99.90;;;;;;5016120;28;20701;-86
2023/12/14 00:30:53;;;;;;;12.17;8.20;;;5.00;99.90;;;;;;5033283;28;20214;-85
2023/12/14 00:33:18;;;;;;;10.50;7.87;;;5.00;99.90;;;;;;5034407;28;20175;-85
2023/12/14 00:35:44;;;;;;;11.50;8.07;;;5.00;99.90;;;;;;5033657;28;20557;-85
2023/12/14 00:38:10;;;;;;;11.13;7.97;;;4.90;99.90;;;;;;5016034;28;20566;-85
2023/12/14 00:40:35;;;;;;;12.50;7.87;;;4.90;99.90;;;;;;5015527;28;20201;-85
2023/12/14 00:43:01;;;;;;;13.80;8.53;;;4.90;99.90;;;;;;5016115;28;20198;-85
2023/12/14 00:45:26;;;;;;;14.03;7.90;;;4.80;99.90;;;;;;5033514;28;20171;-85
2023/12/14 00:47:52;;;;;;;13.20;8.17;;;4.80;99.90;;;;;;5033418;28;20181;-86
2023/12/14 00:50:17;;;;;;;16.13;8.47;;;4.80;99.90;;;;;;5032914;28;20194;-86
2023/12/14 00:52:43;;;;;;;74.03;10.07;;;4.80;99.90;;;;;;5015765;28;20280;-85
2023/12/14 00:55:08;;;;;;;26.63;7.87;;;4.70;99.90;;;;;;5015146;28;20177;-85
2023/12/14 00:57:34;;;;;;;35.20;9.40;;;4.70;99.90;;;;;;5032857;28;20212;-87
2023/12/14 00:59:59;;;;;;;43.17;9.57;;;4.60;99.90;;;;;;5032740;28;20182;-85
2023/12/14 01:02:25;;;;;;;45.37;9.73;;;4.60;99.90;;;;;;5015595;28;20653;-85
2023/12/14 01:04:50;;;;;;;45.37;9.87;;;4.60;99.90;;;;;;5033261;28;20178;-85
2023/12/14 01:07:16;;;;;;;32.50;8.30;;;4.60;99.90;;;;;;5015421;28;20246;-85
2023/12/14 01:09:42;;;;;;;17.43;6.30;;;4.60;99.90;;;;;;5015100;28;20178;-85
2023/12/14 01:12:07;;;;;;;18.97;7.93;;;4.60;99.90;;;;;;5015366;28;20193;-85
2023/12/14 01:14:34;;;;;;;15.00;7.10;;;4.60;99.90;;;;;;5015468;28;20170;-85
2023/12/14 01:17:00;;;;;;;20.50;6.73;;;4.60;99.90;;;;;;5032901;28;20686;-85
2023/12/14 01:19:25;;;;;;;22.50;7.10;;;4.60;99.90;;;;;;5014742;28;20176;-85
2023/12/14 01:21:51;;;;;;;40.77;9.33;;;4.60;99.90;;;;;;5015435;28;20244;-86
2023/12/14 01:24:17;;;;;;;22.40;8.60;;;4.60;99.90;;;;;;5032980;28;20182;-86
2023/12/14 01:26:42;;;;;;;19.60;7.47;;;4.70;99.90;;;;;;5014998;28;20182;-85
2023/12/14 01:29:08;;;;;;;37.60;8.77;;;4.70;99.90;;;;;;5014980;28;20272;-85
2023/12/14 01:31:34;;;;;;;16.60;7.80;;;4.70;99.90;;;;;;5032364;28;20228;-85
2023/12/14 01:33:59;;;;;;;28.70;8.60;;;4.70;99.90;;;;;;5032600;28;20641;-85
2023/12/14 01:36:26;;;;;;;20.97;7.57;;;4.70;99.90;;;;;;5032371;28;20201;-85
2023/12/14 01:38:52;;;;;;;22.63;8.50;;;4.70;99.90;;;;;;5015009;28;20177;-85
2023/12/14 01:41:18;;;;;;;39.30;10.57;;;4.70;99.90;;;;;;5014213;28;20197;-86
2023/12/14 01:43:44;;;;;;;35.57;10.50;;;4.70;99.90;;;;;;5032540;28;20226;-86
2023/12/14 01:46:10;;;;;;;44.60;9.77;;;4.70;99.90;;;;;;5032460;28;20206;-87
2023/12/14 01:48:35;;;;;;;30.73;10.03;;;4.80;99.90;;;;;;5032294;28;20260;-85
2023/12/14 01:51:01;;;;;;;29.73;9.87;;;4.80;99.90;;;;;;5031784;28;20744;-85
2023/12/14 01:53:26;;;;;;;21.20;9.50;;;4.80;99.90;;;;;;5014821;28;20177;-85
2023/12/14 01:55:52;;;;;;;20.50;9.90;;;4.80;99.90;;;;;;5032277;28;20347;-85
2023/12/14 01:58:18;;;;;;;22.27;10.00;;;4.90;99.90;;;;;;5014582;28;20294;-86
2023/12/14 02:00:46;;;;;;;21.27;9.60;;;4.90;99.90;;;;;;5013933;28;20200;-85
2023/12/14 02:03:12;;;;;;;29.17;11.40;;;4.90;99.90;;;;;;5014530;28;20317;-86
2023/12/14 02:05:37;;;;;;;23.70;9.97;;;4.90;99.90;;;;;;5032172;28;20201;-85
2023/12/14 02:08:03;;;;;;;19.93;9.83;;;5.00;99.90;;;;;;5014348;28;20188;-85
2023/12/14 02:10:29;;;;;;;16.93;8.67;;;5.00;99.90;;;;;;5013915;28;20201;-85
2023/12/14 02:12:54;;;;;;;19.60;9.10;;;5.00;99.90;;;;;;5032239;28;20213;-85
2023/12/14 02:15:20;;;;;;;29.50;9.57;;;5.00;99.90;;;;;;5014464;28;20185;-85
2023/12/14 02:17:47;;;;;;;26.63;9.40;;;5.00;99.90;;;;;;5031933;28;20260;-85
2023/12/14 02:20:12;;;;;;;24.60;9.43;;;5.00;99.90;;;;;;5013618;28;20221;-85
2023/12/14 02:22:51;;;;;;;29.23;10.47;;;5.00;99.90;;;;;;5014794;28;20226;-85
2023/12/14 02:25:17;;;;;;;22.90;10.20;;;5.00;99.90;;;;;;5014274;28;20557;-87
2023/12/14 02:27:43;;;;;;;22.53;10.43;;;5.00;99.90;;;;;;5031979;28;20192;-86
2023/12/14 02:30:09;;;;;;;23.90;10.23;;;5.10;99.90;;;;;;5013468;28;20186;-85
2023/12/14 02:32:35;;;;;;;27.20;10.13;;;5.10;99.90;;;;;;5118620;22;20293;-83
2023/12/14 02:35:01;;;;;;;21.60;9.67;;;5.00;99.90;;;;;;5072365;28;20173;-84
2023/12/14 02:37:26;;;;;;;20.43;9.80;;;5.10;99.90;;;;;;5072509;28;20203;-84
2023/12/14 02:39:52;;;;;;;26.37;10.17;;;5.10;99.90;;;;;;5072662;28;20196;-83
2023/12/14 02:42:17;;;;;;;22.90;10.50;;;5.10;99.90;;;;;;5074332;28;20553;-80
2023/12/14 02:44:43;;;;;;;28.37;9.43;;;5.10;99.90;;;;;;5073099;28;20187;-85
2023/12/14 02:47:08;;;;;;;21.70;10.23;;;5.10;99.90;;;;;;5074416;28;20210;-83
2023/12/14 02:49:34;;;;;;;26.83;11.27;;;5.10;99.90;;;;;;5071774;28;20202;-83
2023/12/14 02:51:59;;;;;;;19.70;10.40;;;5.10;99.90;;;;;;5072595;28;20200;-83
2023/12/14 02:54:25;;;;;;;25.10;10.83;;;5.10;99.90;;;;;;5073729;28;20173;-83
2023/12/14 02:56:51;;;;;;;27.37;11.20;;;5.10;99.90;;;;;;5073779;28;20204;-83
2023/12/14 02:59:16;;;;;;;23.30;10.67;;;5.10;99.90;;;;;;5073590;28;20254;-83
2023/12/14 03:01:42;;;;;;;20.37;9.93;;;5.20;99.90;;;;;;5072151;28;20197;-84
2023/12/14 03:04:07;;;;;;;23.43;10.90;;;5.20;99.90;;;;;;5072106;28;20172;-83
2023/12/14 03:06:33;;;;;;;23.47;11.23;;;5.30;99.90;;;;;;5072837;28;20181;-83
2023/12/14 03:08:59;;;;;;;24.80;10.83;;;5.30;99.90;;;;;;5073913;28;20552;-82
2023/12/14 03:11:26;;;;;;;23.53;11.30;;;5.30;99.90;;;;;;5071885;28;20207;-83
2023/12/14 03:13:51;;;;;;;20.13;10.37;;;5.30;99.90;;;;;;5073961;28;20186;-83
2023/12/14 03:16:18;;;;;;;23.33;11.17;;;5.40;99.90;;;;;;5073532;28;20204;-83
2023/12/14 03:18:44;;;;;;;19.33;10.17;;;5.40;99.90;;;;;;5072232;28;20173;-84
2023/12/14 03:21:10;;;;;;;20.87;10.63;;;5.40;99.90;;;;;;5076965;28;20207;-83
2023/12/14 03:23:35;;;;;;;23.03;10.47;;;5.40;99.90;;;;;;5075433;28;20177;-83
2023/12/14 03:26:01;;;;;;;25.27;10.87;;;5.50;99.90;;;;;;5075799;28;20605;-83
2023/12/14 03:28:27;;;;;;;30.10;11.70;;;5.50;99.90;;;;;;5075700;28;20177;-84
2023/12/14 03:30:53;;;;;;;29.80;12.03;;;5.50;99.90;;;;;;5076653;28;20270;-83
2023/12/14 03:33:18;;;;;;;31.63;12.10;;;5.40;99.90;;;;;;5075595;28;20182;-83
2023/12/14 03:35:44;;;;;;;27.10;11.67;;;5.40;99.90;;;;;;5077548;28;20185;-83
2023/12/14 03:38:10;;;;;;;29.47;12.37;;;5.40;99.90;;;;;;5076477;28;20187;-83
2023/12/14 03:40:35;;;;;;;31.37;11.50;;;5.50;99.90;;;;;;5076451;28;20218;-83
2023/12/14 03:43:03;;;;;;;37.07;12.37;;;5.50;99.90;;;;;;5075259;28;20181;-84
2023/12/14 03:45:28;;;;;;;25.73;11.57;;;5.50;99.90;;;;;;5076957;28;20165;-83
2023/12/14 03:47:54;;;;;;;28.23;11.77;;;5.50;99.90;;;;;;5075798;28;20185;-83
2023/12/14 03:50:20;;;;;;;26.70;10.37;;;5.50;99.90;;;;;;5074838;28;20246;-83
2023/12/14 03:52:46;;;;;;;27.50;11.53;;;5.50;99.90;;;;;;5075264;28;20200;-83
2023/12/14 03:55:12;;;;;;;26.87;11.03;;;5.50;99.90;;;;;;5077185;28;20205;-83
2023/12/14 03:57:37;;;;;;;25.43;10.83;;;5.50;99.90;;;;;;5075058;28;20227;-83
2023/12/14 04:00:03;;;;;;;26.53;10.87;;;5.50;99.90;;;;;;5074793;28;20172;-83
2023/12/14 04:02:29;;;;;;;30.43;11.23;;;5.50;99.90;;;;;;5073680;28;20204;-83
2023/12/14 04:04:55;;;;;;;31.23;11.80;;;5.50;99.90;;;;;;5073660;28;20173;-83
2023/12/14 04:07:21;;;;;;;29.07;12.23;;;5.50;99.90;;;;;;5076510;28;20280;-84
2023/12/14 04:09:47;;;;;;;32.10;13.20;;;5.50;99.90;;;;;;5076035;28;20183;-83
2023/12/14 04:12:13;;;;;;;26.07;11.13;;;5.50;99.90;;;;;;5076792;28;20248;-83
2023/12/14 04:14:38;;;;;;;27.17;11.37;;;5.50;99.90;;;;;;5076441;28;20198;-83
2023/12/14 04:17:04;;;;;;;32.47;12.70;;;5.50;99.90;;;;;;5076059;28;20284;-85
2023/12/14 04:19:29;;;;;;;30.33;11.90;;;5.50;99.90;;;;;;5075539;28;20246;-83
2023/12/14 04:21:55;;;;;;;28.80;11.37;;;5.50;99.90;;;;;;5074736;28;20196;-83
2023/12/14 04:24:21;;;;;;;26.77;10.73;;;5.50;99.90;;;;;;5076554;28;20177;-83
2023/12/14 04:26:47;;;;;;;27.63;11.30;;;5.50;99.90;;;;;;5076383;28;20536;-83
2023/12/14 04:29:13;;;;;;;26.63;11.00;;;5.50;99.90;;;;;;5074571;28;20176;-83
2023/12/14 04:31:38;;;;;;;24.37;10.20;;;5.50;99.90;;;;;;5075088;28;20586;-84
2023/12/14 04:34:04;;;;;;;23.63;10.13;;;5.50;99.90;;;;;;5075995;28;20176;-83
2023/12/14 04:36:29;;;;;;;23.80;10.23;;;5.50;99.90;;;;;;5075508;28;20201;-83
2023/12/14 04:38:55;;;;;;;22.57;10.20;;;5.50;99.90;;;;;;5076123;28;20267;-83
2023/12/14 04:41:20;;;;;;;20.10;9.43;;;5.50;99.90;;;;;;5075302;28;20246;-84
2023/12/14 04:43:46;;;;;;;20.30;9.67;;;5.60;99.90;;;;;;5075934;28;20173;-83
2023/12/14 04:46:11;;;;;;;20.70;9.87;;;5.60;99.90;;;;;;5075616;28;20275;-83
2023/12/14 04:48:37;;;;;;;18.40;9.90;;;5.70;99.90;;;;;;5074396;28;20180;-83
2023/12/14 04:51:03;;;;;;;19.13;9.50;;;5.70;99.90;;;;;;5075168;28;20192;-83
2023/12/14 04:53:28;;;;;;;18.13;9.60;;;5.70;99.90;;;;;;5075833;28;20252;-83
2023/12/14 04:55:54;;;;;;;17.57;9.13;;;5.70;99.90;;;;;;5074065;28;20185;-83
2023/12/14 04:58:19;;;;;;;20.17;10.23;;;5.70;99.90;;;;;;5075043;28;20171;-83
2023/12/14 05:00:45;;;;;;;20.47;9.53;;;5.70;99.90;;;;;;5073372;28;20683;-83
2023/12/14 05:03:11;;;;;;;22.90;9.37;;;5.70;99.90;;;;;;5073882;28;20169;-83
2023/12/14 05:05:36;;;;;;;17.70;9.70;;;5.70;99.90;;;;;;5075389;28;20165;-83
2023/12/14 05:08:02;;;;;;;17.93;9.43;;;5.60;99.90;;;;;;5073898;28;20215;-83
2023/12/14 05:10:27;;;;;;;18.57;9.67;;;5.60;99.90;;;;;;5074570;28;20177;-84
2023/12/14 05:12:53;;;;;;;19.87;9.67;;;5.60;99.90;;;;;;5073674;28;20188;-83
2023/12/14 05:15:19;;;;;;;23.43;9.73;;;5.60;99.90;;;;;;5075747;28;20205;-83
2023/12/14 05:17:45;;;;;;;22.80;10.13;;;5.60;99.90;;;;;;5073626;28;20206;-84
2023/12/14 05:20:11;;;;;;;26.80;11.53;;;5.60;99.90;;;;;;5074309;28;20183;-83
2023/12/14 05:22:37;;;;;;;26.80;11.10;;;5.60;99.90;;;;;;5074965;28;20182;-83
2023/12/14 05:25:04;;;;;;;25.83;11.07;;;5.60;99.90;;;;;;5075068;28;20165;-83
2023/12/14 05:27:29;;;;;;;30.20;11.57;;;5.50;99.90;;;;;;5073169;28;20180;-83
2023/12/14 05:29:55;;;;;;;29.57;11.97;;;5.50;99.90;;;;;;5073993;28;20230;-83
2023/12/14 05:32:20;;;;;;;25.00;10.93;;;5.50;99.90;;;;;;5073317;28;20216;-84
2023/12/14 05:34:46;;;;;;;29.67;11.33;;;5.60;99.90;;;;;;5073545;28;20247;-84
2023/12/14 05:37:12;;;;;;;26.23;10.80;;;5.60;99.90;;;;;;5073664;28;20631;-83
2023/12/14 05:39:40;;;;;;;26.47;11.07;;;5.60;99.90;;;;;;5072556;28;20173;-84
2023/12/14 05:42:06;;;;;;;24.10;10.60;;;5.50;99.90;;;;;;5072689;28;20219;-83
2023/12/14 05:44:31;;;;;;;31.27;11.63;;;5.50;99.90;;;;;;5073123;28;20173;-84
2023/12/14 05:46:57;;;;;;;29.93;11.33;;;5.60;99.90;;;;;;5073298;28;20219;-83
2023/12/14 05:49:22;;;;;;;32.23;11.20;;;5.50;99.90;;;;;;5073084;28;20214;-83
2023/12/14 05:51:48;;;;;;;25.83;10.03;;;5.50;99.90;;;;;;5075246;28;20200;-81
2023/12/14 05:54:13;;;;;;;33.77;11.47;;;5.50;99.90;;;;;;5074476;28;20183;-81
2023/12/14 05:56:39;;;;;;;30.80;12.73;;;6.00;99.90;;;;;;5076424;28;20208;-80
2023/12/14 05:59:04;;;;;;;31.00;11.83;;;6.20;99.90;;;;;;5074706;28;20245;-82
2023/12/14 06:01:30;;;;;;;26.97;11.30;;;6.20;99.90;;;;;;5073996;28;20201;-83
2023/12/14 06:03:56;;;;;;;34.93;11.23;;;6.10;99.90;;;;;;5074788;28;20180;-83
2023/12/14 06:06:21;;;;;;;27.53;11.53;;;6.00;99.90;;;;;;5074269;28;20230;-82
2023/12/14 06:08:48;;;;;;;28.53;11.37;;;5.90;99.90;;;;;;5074297;28;20182;-86
2023/12/14 06:11:13;;;;;;;26.80;11.50;;;5.90;99.90;;;;;;5073880;28;20209;-82
2023/12/14 06:13:39;;;;;;;32.73;11.63;;;5.80;99.90;;;;;;5072765;28;20686;-82
2023/12/14 06:16:06;;;;;;;32.13;12.93;;;5.80;99.90;;;;;;5074257;28;20698;-84
2023/12/14 06:18:32;;;;;;;31.20;13.17;;;5.70;99.90;;;;;;5074531;28;20177;-82
2023/12/14 06:20:57;;;;;;;33.00;13.17;;;5.70;99.90;;;;;;5073904;28;20242;-82
2023/12/14 06:23:25;;;;;;;32.43;12.53;;;5.70;99.90;;;;;;5072947;28;20192;-81
2023/12/14 06:25:50;;;;;;;26.47;11.20;;;5.70;99.90;;;;;;5072547;28;20256;-84
2023/12/14 06:28:16;;;;;;;23.13;9.67;;;5.70;99.90;;;;;;5068580;28;20215;-79
2023/12/14 06:30:41;;;;;;;26.57;10.00;;;5.70;99.90;;;;;;5070002;28;20196;-81
2023/12/14 06:33:07;;;;;;;23.33;8.83;;;5.70;99.90;;;;;;5072152;28;20590;-81
2023/12/14 06:35:32;;;;;;;23.77;9.70;;;5.70;99.90;;;;;;5071121;28;20179;-83
2023/12/14 06:37:58;;;;;;;23.90;9.47;;;5.70;99.90;;;;;;5072483;28;20211;-83
2023/12/14 06:40:23;;;;;;;21.70;10.50;;;5.70;99.90;;;;;;5072107;28;20548;-82
2023/12/14 06:42:49;;;;;;;30.60;11.83;;;5.70;99.90;;;;;;5073833;28;20227;-82
2023/12/14 06:45:15;;;;;;;27.83;12.10;;;5.70;99.90;;;;;;5073760;28;20615;-82
2023/12/14 06:47:42;;;;;;;26.73;11.37;;;5.80;99.90;;;;;;5072760;28;20662;-82
2023/12/14 06:50:08;;;;;;;21.63;8.30;;;5.80;99.90;;;;;;5073342;28;20174;-83
2023/12/14 06:52:34;;;;;;;23.20;9.27;;;6.70;99.90;;;;;;5073555;28;20195;-83
2023/12/14 06:54:59;;;;;;;16.33;8.03;;;8.20;99.90;;;;;;5077713;28;20187;-82
2023/12/14 06:57:25;;;;;;;17.50;8.67;;;8.70;99.90;;;;;;5076079;28;20227;-82
2023/12/14 06:59:51;;;;;;;15.97;7.93;;;9.20;99.90;;;;;;5075845;28;20547;-82
2023/12/14 07:02:16;;;;;;;16.17;8.13;;;9.30;99.90;;;;;;5076428;28;20568;-82
2023/12/14 07:04:42;;;;;;;15.53;8.27;;;9.40;99.90;;;;;;5075971;28;20172;-82
2023/12/14 07:07:07;;;;;;;14.43;8.03;;;9.70;99.90;;;;;;5077238;28;20315;-82
2023/12/14 07:09:34;;;;;;;12.90;7.73;;;10.30;99.90;;;;;;5076768;28;20173;-83
2023/12/14 07:12:02;;;;;;;14.07;7.17;;;10.50;99.90;;;;;;5076991;28;20185;-82
2023/12/14 07:14:28;;;;;;;16.43;8.53;;;10.50;99.90;;;;;;5077887;28;20634;-82
2023/12/14 07:16:53;;;;;;;16.93;8.30;;;10.10;99.90;;;;;;5076956;28;20295;-82
2023/12/14 07:19:19;;;;;;;11.63;6.50;;;9.50;99.90;;;;;;5075074;28;20192;-81
2023/12/14 07:21:44;;;;;;;13.47;7.33;;;9.50;99.90;;;;;;5075913;28;20200;-80
2023/12/14 07:24:10;;;;;;;14.77;7.70;;;9.90;99.90;;;;;;5074984;28;20550;-83
2023/12/14 07:26:35;;;;;;;16.93;8.67;;;10.10;99.90;;;;;;5077252;28;20211;-83
2023/12/14 07:29:01;;;;;;;17.77;8.90;;;9.50;35.80;;;;;;5074933;28;20181;-80
2023/12/14 07:31:28;;;;;;;18.90;9.37;;;8.70;99.90;;;;;;5076262;28;20219;-83
2023/12/14 07:33:55;;;;;;;19.07;9.27;;;8.10;99.90;;;;;;5077037;28;20184;-83
2023/12/14 07:36:22;;;;;;;19.40;8.97;;;7.50;99.90;;;;;;5075337;28;20562;-83
2023/12/14 07:38:48;;;;;;;17.17;8.70;;;7.20;99.90;;;;;;5076738;28;20703;-83
2023/12/14 07:41:13;;;;;;;18.17;8.77;;;6.90;99.90;;;;;;5076019;28;20193;-83
2023/12/14 07:43:39;;;;;;;18.30;8.80;;;6.70;99.90;;;;;;5075291;28;20181;-83
2023/12/14 07:46:04;;;;;;;17.67;8.67;;;6.60;99.90;;;;;;5075412;28;20206;-83
2023/12/14 07:48:30;;;;;;;15.90;8.23;;;6.50;99.90;;;;;;5076535;28;20555;-82
2023/12/14 07:50:56;;;;;;;18.07;8.13;;;6.40;99.90;;;;;;5075593;28;20283;-84
2023/12/14 07:53:21;;;;;;;19.50;9.13;;;6.40;99.90;;;;;;5076302;28;20210;-83
2023/12/14 07:55:47;;;;;;;18.27;8.73;;;6.30;99.90;;;;;;5076179;28;20180;-83
2023/12/14 07:58:13;;;;;;;15.73;8.37;;;6.30;99.90;;;;;;5076212;28;20194;-83
2023/12/14 08:00:38;;;;;;;16.17;8.10;;;6.30;99.90;;;;;;5074236;28;20170;-83
2023/12/14 08:03:04;;;;;;;13.67;8.33;;;6.20;99.90;;;;;;5076257;28;20221;-83
2023/12/14 08:05:30;;;;;;;16.57;8.60;;;6.20;99.90;;;;;;5075948;28;20163;-83
2023/12/14 08:07:55;;;;;;;14.90;9.33;;;6.20;99.90;;;;;;5076409;28;20663;-83
2023/12/14 08:10:21;;;;;;;13.00;7.43;;;6.20;99.90;;;;;;5075426;28;20178;-83
2023/12/14 08:12:51;;;;;;;14.33;7.93;;;6.30;99.90;;;;;;5075827;28;20186;-83
2023/12/14 08:15:17;;;;;;;16.83;9.70;;;6.20;99.90;;;;;;5075995;28;20642;-83
2023/12/14 08:17:42;;;;;;;15.13;9.63;;;6.20;99.90;;;;;;5075964;28;20304;-83
2023/12/14 08:20:10;;;;;;;14.97;9.60;;;6.20;99.90;;;;;;5074288;28;20169;-83
2023/12/14 08:22:36;;;;;;;17.27;9.93;;;6.10;99.90;;;;;;5075928;28;20210;-83
2023/12/14 08:25:03;;;;;;;16.77;10.07;;;6.10;99.90;;;;;;5074196;28;20572;-83
2023/12/14 08:27:29;;;;;;;12.93;8.20;;;6.10;99.90;;;;;;5074440;28;20184;-84
2023/12/14 08:29:54;;;;;;;16.17;10.90;;;6.10;99.90;;;;;;5073909;28;20177;-83
2023/12/14 08:32:20;;;;;;;12.53;7.73;;;6.10;99.90;;;;;;5118231;22;20597;-86
2023/12/14 08:34:45;;;;;;;15.73;10.30;;;6.10;99.90;;;;;;5053847;28;20182;-85
2023/12/14 08:37:11;;;;;;;11.47;7.07;;;6.10;99.90;;;;;;5053684;28;20207;-87
2023/12/14 08:39:36;;;;;;;28.43;24.00;;;6.20;99.90;;;;;;5051883;28;20162;-86
2023/12/14 08:42:02;;;;;;;18.50;14.00;;;6.20;99.90;;;;;;5053722;28;20189;-86
2023/12/14 08:44:28;;;;;;;14.43;10.70;;;6.20;99.90;;;;;;5052452;28;20281;-86
2023/12/14 08:46:53;;;;;;;10.73;6.93;;;6.20;99.90;;;;;;5052395;28;20200;-87
2023/12/14 08:49:19;;;;;;;11.83;7.43;;;6.20;99.90;;;;;;5053342;28;20548;-85
2023/12/14 08:51:45;;;;;;;16.20;8.57;;;6.10;99.90;;;;;;5051936;28;20288;-86
2023/12/14 08:54:11;;;;;;;9.67;6.57;;;6.10;99.90;;;;;;5053381;28;20185;-85
2023/12/14 08:56:36;;;;;;;9.37;6.13;;;6.20;99.90;;;;;;5051950;28;20212;-85
2023/12/14 08:59:03;;;;;;;10.33;6.30;;;6.20;99.90;;;;;;5053094;28;20227;-86
2023/12/14 09:01:29;;;;;;;10.37;5.77;;;6.20;99.90;;;;;;5052801;28;20201;-85
2023/12/14 09:03:54;;;;;;;9.60;5.90;;;6.10;99.90;;;;;;5051921;28;20196;-85
2023/12/14 09:06:20;;;;;;;9.50;6.10;;;6.20;99.90;;;;;;5052007;28;20185;-85
2023/12/14 09:08:46;;;;;;;8.33;5.77;;;6.20;99.90;;;;;;5051800;28;20179;-86
2023/12/14 09:11:11;;;;;;;7.97;5.17;;;6.20;99.90;;;;;;5051578;28;20178;-85
2023/12/14 09:13:37;;;;;;;8.23;5.67;;;6.20;99.90;;;;;;5052893;28;20188;-85
2023/12/14 09:16:03;;;;;;;7.23;5.10;;;6.30;99.90;;;;;;5052562;28;20188;-86
2023/12/14 09:18:29;;;;;;;7.33;4.87;;;6.30;99.90;;;;;;5051069;28;20651;-86
2023/12/14 09:20:54;;;;;;;10.93;7.93;;;6.30;99.90;;;;;;5052370;28;20177;-86
2023/12/14 09:23:20;;;;;;;9.27;5.17;;;6.30;99.90;;;;;;5051473;28;20196;-85
2023/12/14 09:25:45;;;;;;;6.73;4.97;;;6.30;99.90;;;;;;5051717;28;20173;-85
2023/12/14 09:28:11;;;;;;;6.87;5.00;;;6.30;99.90;;;;;;5053110;28;20650;-86
2023/12/14 09:30:37;;;;;;;7.33;5.03;;;6.30;99.90;;;;;;5052113;28;20179;-86
2023/12/14 09:33:03;;;;;;;5.97;4.30;;;6.30;99.90;;;;;;5052484;28;20232;-86
2023/12/14 09:35:28;;;;;;;6.13;4.40;;;6.30;99.90;;;;;;5052470;28;20566;-87
2023/12/14 09:37:56;;;;;;;9.80;4.90;;;6.20;99.90;;;;;;5051099;28;20205;-85
2023/12/14 09:40:22;;;;;;;5.97;4.40;;;6.30;99.90;;;;;;5051045;28;20174;-85
2023/12/14 09:42:48;;;;;;;7.70;4.90;;;6.30;99.90;;;;;;5051258;28;20201;-86
2023/12/14 09:45:17;;;;;;;5.03;4.20;;;6.30;99.90;;;;;;5051274;28;20168;-86
2023/12/14 09:47:44;;;;;;;5.90;4.33;;;6.30;99.90;;;;;;5052312;28;20178;-86
2023/12/14 09:50:10;;;;;;;6.50;4.20;;;6.30;99.90;;;;;;5051869;28;20209;-85
2023/12/14 09:52:35;;;;;;;7.07;4.47;;;6.30;99.90;;;;;;5050943;28;20228;-85
2023/12/14 09:55:03;;;;;;;6.23;4.47;;;6.30;99.90;;;;;;5052371;28;20713;-85
2023/12/14 09:57:29;;;;;;;5.50;3.90;;;6.30;99.90;;;;;;5051135;28;20227;-85
2023/12/14 09:59:55;;;;;;;6.70;4.10;;;6.20;99.90;;;;;;5050437;28;20177;-85
2023/12/14 10:02:26;;;;;;;4.63;3.93;;;6.20;99.90;;;;;;5050815;28;20637;-85
2023/12/14 10:04:52;;;;;;;4.47;3.80;;;6.20;99.90;;;;;;5052149;28;20185;-86
2023/12/14 10:07:18;;;;;;;7.67;5.63;;;6.20;99.90;;;;;;5051075;28;20626;-86
2023/12/14 10:09:44;;;;;;;4.43;4.00;;;6.20;99.90;;;;;;5051582;28;20182;-86
2023/12/14 10:12:10;;;;;;;4.63;3.57;;;6.20;99.90;;;;;;5050716;28;20205;-87
2023/12/14 10:14:36;;;;;;;4.50;3.70;;;6.20;99.90;;;;;;5050714;28;20234;-86
2023/12/14 10:17:19;;;;;;;4.53;3.80;;;6.20;99.90;;;;;;5051846;28;20193;-86
2023/12/14 10:19:46;;;;;;;4.47;3.70;;;6.20;99.90;;;;;;5050351;28;20187;-86
2023/12/14 10:22:15;;;;;;;6.20;3.97;;;6.20;99.90;;;;;;5052121;28;20182;-85
2023/12/14 10:24:44;;;;;;;4.90;4.17;;;6.20;99.90;;;;;;5051947;28;20170;-86
2023/12/14 10:27:11;;;;;;;5.20;4.10;;;6.20;99.90;;;;;;5050695;28;20173;-86
2023/12/14 10:29:39;;;;;;;6.77;5.67;;;6.20;99.90;;;;;;5049890;28;20173;-86
2023/12/14 10:32:06;;;;;;;6.83;4.60;;;6.20;99.90;;;;;;5050253;28;20214;-86
2023/12/14 10:34:35;;;;;;;4.23;3.53;;;6.20;99.90;;;;;;5050793;28;20174;-85
2023/12/14 10:37:03;;;;;;;4.80;3.70;;;6.30;99.90;;;;;;5051721;28;20227;-86
2023/12/14 10:39:31;;;;;;;3.90;3.43;;;6.30;99.90;;;;;;5049960;28;20181;-85
2023/12/14 10:41:58;;;;;;;4.50;3.70;;;6.20;99.90;;;;;;5050400;28;20284;-85
2023/12/14 10:44:27;;;;;;;4.47;3.47;;;6.20;99.90;;;;;;5051651;28;20170;-86
2023/12/14 10:46:57;;;;;;;4.40;3.47;;;6.20;99.90;;;;;;5050397;28;20183;-86
2023/12/14 10:49:25;;;;;;;4.27;3.57;;;6.30;99.90;;;;;;5051561;28;20175;-84
2023/12/14 10:51:52;;;;;;;3.93;3.47;;;6.20;99.90;;;;;;5050485;28;20194;-84
2023/12/14 10:54:19;;;;;;;4.70;3.63;;;6.30;99.90;;;;;;5050439;28;20184;-85
2023/12/14 10:56:44;;;;;;;4.27;3.57;;;6.30;99.90;;;;;;5050427;28;20639;-83
2023/12/14 10:59:10;;;;;;;5.07;4.00;;;6.30;99.90;;;;;;5051400;28;20169;-83
2023/12/14 11:01:39;;;;;;;4.20;3.70;;;6.30;99.90;;;;;;5050172;28;20277;-83
2023/12/14 11:04:06;;;;;;;4.60;3.50;;;6.20;99.90;;;;;;5050299;28;20177;-83
2023/12/14 11:06:35;;;;;;;5.17;3.77;;;6.20;99.90;;;;;;5050328;28;20178;-84
2023/12/14 11:09:10;;;;;;;5.60;3.67;;;6.10;99.90;;;;;;5050189;28;20176;-83
2023/12/14 11:11:57;;;;;;;6.27;4.17;;;6.10;99.90;;;;;;5051110;28;20205;-81
2023/12/14 11:14:24;;;;;;;4.80;3.90;;;6.10;99.90;;;;;;5052233;28;20180;-82
2023/12/14 11:16:53;;;;;;;5.80;4.97;;;6.10;99.90;;;;;;5050695;28;20293;-80
2023/12/14 11:19:22;;;;;;;4.70;4.20;;;6.00;99.90;;;;;;5051601;28;20648;-81
2023/12/14 11:22:05;;;;;;;4.30;3.50;;;6.00;99.90;;;;;;5050071;28;20281;-82
2023/12/14 11:24:30;;;;;;;4.43;3.70;;;6.00;99.90;;;;;;5050300;28;20185;-81
2023/12/14 11:26:56;;;;;;;5.67;3.17;;;6.00;99.90;;;;;;5039950;28;20197;-82
2023/12/14 11:29:22;;;;;;;3.67;3.07;;;6.00;99.90;;;;;;5051046;28;20185;-81
2023/12/14 11:31:48;;;;;;;4.33;3.20;;;6.00;99.90;;;;;;5041565;28;20642;-83
2023/12/14 11:34:16;;;;;;;3.70;3.30;;;6.00;99.90;;;;;;5046622;28;20219;-81
2023/12/14 11:36:42;;;;;;;3.90;2.93;;;6.00;99.90;;;;;;5051354;28;20193;-88
2023/12/14 11:39:09;;;;;;;3.17;2.70;;;6.00;99.90;;;;;;5050426;28;20215;-86
2023/12/14 11:41:36;;;;;;;3.33;2.50;;;6.10;99.90;;;;;;5052534;28;20196;-86
2023/12/14 11:44:02;;;;;;;3.57;2.47;;;6.00;99.90;;;;;;5053553;28;20599;-85
2023/12/14 11:46:29;;;;;;;3.93;2.70;;;6.10;99.90;;;;;;5053710;28;20280;-85
2023/12/14 11:48:56;;;;;;;3.00;2.23;;;6.10;99.90;;;;;;5055041;28;20188;-86
2023/12/14 11:51:22;;;;;;;4.00;2.40;;;6.10;99.90;;;;;;5052952;28;20206;-86
2023/12/14 11:53:48;;;;;;;3.07;2.60;;;6.10;99.90;;;;;;5048530;28;20189;-84
2023/12/14 11:56:17;;;;;;;2.77;2.13;;;6.10;99.90;;;;;;5051044;28;20269;-84
2023/12/14 11:58:44;;;;;;;3.80;2.70;;;6.10;99.90;;;;;;5048665;28;20263;-85
2023/12/14 12:01:17;;;;;;;7.03;5.53;;;6.10;99.90;;;;;;5053763;28;20224;-83
2023/12/14 12:03:44;;;;;;;3.47;2.83;;;7.40;99.90;;;;;;5054272;28;20225;-85
2023/12/14 12:06:24;;;;;;;2.70;2.13;;;8.70;99.90;;;;;;5053425;28;20179;-85
2023/12/14 12:08:50;;;;;;;13.97;9.83;;;8.00;99.90;;;;;;5053854;28;20187;-85
2023/12/14 12:11:18;;;;;;;2.20;1.90;;;7.40;99.90;;;;;;5045637;28;20199;-84
2023/12/14 12:13:43;;;;;;;2.10;1.90;;;6.90;99.90;;;;;;5054219;28;20273;-85
2023/12/14 12:16:09;;;;;;;48.43;26.90;;;6.60;99.90;;;;;;5053763;28;20275;-84
2023/12/14 12:18:34;;;;;;;3.73;2.70;;;6.40;99.90;;;;;;5053138;28;20176;-85
2023/12/14 12:21:03;;;;;;;1.90;1.70;;;6.30;99.90;;;;;;5052571;28;20175;-85
2023/12/14 12:23:29;;;;;;;2.40;2.00;;;6.20;99.90;;;;;;5054044;28;20209;-84
2023/12/14 12:25:55;;;;;;;2.03;1.60;;;6.10;99.90;;;;;;5054082;28;20203;-85
2023/12/14 12:28:21;;;;;;;2.23;1.90;;;6.00;99.90;;;;;;5052859;28;20205;-85
2023/12/14 12:30:47;;;;;;;2.93;2.07;;;6.00;99.90;;;;;;5051279;28;20239;-85
2023/12/14 12:33:13;;;;;;;2.53;2.23;;;5.90;99.90;;;;;;5053836;28;20209;-84
2023/12/14 12:35:38;;;;;;;2.40;1.97;;;5.90;99.90;;;;;;5051429;28;20350;-85
2023/12/14 12:38:04;;;;;;;3.43;2.50;;;5.90;99.90;;;;;;5053670;28;20205;-85
2023/12/14 12:40:33;;;;;;;2.50;2.10;;;5.80;99.90;;;;;;5053227;28;20201;-85